sensor_id;sensor_type;location;lat;lon;timestamp;P1;durP1;ratioP1;P2;durP2;ratioP2
3597;SDS011;1813;52.016;8.714;2022-12-10T00:00:12;98.23;;;48.87;;
3597;SDS011;1813;52.016;8.714;2022-12-10T00:02:47;104.37;;;50.50;;
3597;SDS011;1813;52.016;8.714;2022-12-10T00:05:21;103.50;;;49.80;;
3597;SDS011;1813;52.016;8.714;2022-12-10T00:07:55;105.63;;;50.90;;
3597;SDS011;1813;52.016;8.714;2022-12-10T00:10:31;106.60;;;52.37;;
3597;SDS011;1813;52.016;8.714;2022-12-10T00:13:05;106.40;;;51.00;;
3597;SDS011;1813;52.016;8.714;2022-12-10T00:15:39;100.17;;;49.87;;
3597;SDS011;1813;52.016;8.714;2022-12-10T00:18:12;103.07;;;49.63;;
3597;SDS011;1813;52.016;8.714;2022-12-10T00:20:46;106.63;;;51.87;;
3597;SDS011;1813;52.016;8.714;2022-12-10T00:23:20;107.10;;;49.77;;
3597;SDS011;1813;52.016;8.714;2022-12-10T00:25:57;108.10;;;50.77;;
3597;SDS011;1813;52.016;8.714;2022-12-10T00:28:35;109.87;;;50.00;;
3597;SDS011;1813;52.016;8.714;2022-12-10T00:31:10;104.87;;;50.70;;
3597;SDS011;1813;52.016;8.714;2022-12-10T00:33:45;102.60;;;50.50;;
3597;SDS011;1813;52.016;8.714;2022-12-10T00:36:20;103.90;;;49.70;;
3597;SDS011;1813;52.016;8.714;2022-12-10T00:38:56;102.13;;;49.07;;
3597;SDS011;1813;52.016;8.714;2022-12-10T00:41:34;97.30;;;49.60;;
3597;SDS011;1813;52.016;8.714;2022-12-10T00:44:08;105.27;;;52.20;;
3597;SDS011;1813;52.016;8.714;2022-12-10T00:46:42;100.73;;;50.57;;
3597;SDS011;1813;52.016;8.714;2022-12-10T00:49:16;101.57;;;52.43;;
3597;SDS011;1813;52.016;8.714;2022-12-10T00:51:53;109.73;;;52.67;;
3597;SDS011;1813;52.016;8.714;2022-12-10T00:54:27;106.07;;;52.80;;
3597;SDS011;1813;52.016;8.714;2022-12-10T00:57:03;110.47;;;52.13;;
3597;SDS011;1813;52.016;8.714;2022-12-10T00:59:37;105.93;;;52.27;;
3597;SDS011;1813;52.016;8.714;2022-12-10T01:02:11;110.10;;;53.70;;
3597;SDS011;1813;52.016;8.714;2022-12-10T01:04:45;117.20;;;54.47;;
3597;SDS011;1813;52.016;8.714;2022-12-10T01:07:19;117.50;;;55.73;;
3597;SDS011;1813;52.016;8.714;2022-12-10T01:09:54;112.60;;;52.80;;
3597;SDS011;1813;52.016;8.714;2022-12-10T01:12:30;112.70;;;55.70;;
3597;SDS011;1813;52.016;8.714;2022-12-10T01:15:04;114.40;;;54.53;;
3597;SDS011;1813;52.016;8.714;2022-12-10T01:17:40;111.43;;;53.67;;
3597;SDS011;1813;52.016;8.714;2022-12-10T01:20:14;116.27;;;55.83;;
3597;SDS011;1813;52.016;8.714;2022-12-10T01:22:48;112.30;;;53.00;;
3597;SDS011;1813;52.016;8.714;2022-12-10T01:25:22;123.47;;;54.90;;
3597;SDS011;1813;52.016;8.714;2022-12-10T01:27:58;115.30;;;53.00;;
3597;SDS011;1813;52.016;8.714;2022-12-10T01:30:32;114.67;;;53.40;;
3597;SDS011;1813;52.016;8.714;2022-12-10T01:33:06;104.80;;;51.70;;
3597;SDS011;1813;52.016;8.714;2022-12-10T01:35:39;107.30;;;50.30;;
3597;SDS011;1813;52.016;8.714;2022-12-10T01:38:13;112.13;;;53.87;;
3597;SDS011;1813;52.016;8.714;2022-12-10T01:40:47;113.43;;;54.80;;
3597;SDS011;1813;52.016;8.714;2022-12-10T01:43:24;114.27;;;52.13;;
3597;SDS011;1813;52.016;8.714;2022-12-10T01:45:58;107.27;;;53.73;;
3597;SDS011;1813;52.016;8.714;2022-12-10T01:48:31;106.63;;;52.23;;
3597;SDS011;1813;52.016;8.714;2022-12-10T01:51:05;103.13;;;50.93;;
3597;SDS011;1813;52.016;8.714;2022-12-10T01:53:40;107.30;;;52.57;;
3597;SDS011;1813;52.016;8.714;2022-12-10T01:56:15;111.60;;;51.67;;
3597;SDS011;1813;52.016;8.714;2022-12-10T01:58:54;116.53;;;53.00;;
3597;SDS011;1813;52.016;8.714;2022-12-10T02:01:31;107.50;;;52.33;;
3597;SDS011;1813;52.016;8.714;2022-12-10T02:04:23;108.47;;;53.37;;
3597;SDS011;1813;52.016;8.714;2022-12-10T02:07:04;105.27;;;52.37;;
3597;SDS011;1813;52.016;8.714;2022-12-10T02:09:45;109.07;;;53.80;;
3597;SDS011;1813;52.016;8.714;2022-12-10T02:12:27;106.40;;;53.20;;
3597;SDS011;1813;52.016;8.714;2022-12-10T02:15:12;100.70;;;51.07;;
3597;SDS011;1813;52.016;8.714;2022-12-10T02:17:48;110.13;;;53.70;;
3597;SDS011;1813;52.016;8.714;2022-12-10T02:20:28;106.33;;;53.60;;
3597;SDS011;1813;52.016;8.714;2022-12-10T02:23:10;99.83;;;50.00;;
3597;SDS011;1813;52.016;8.714;2022-12-10T02:25:48;98.33;;;49.27;;
3597;SDS011;1813;52.016;8.714;2022-12-10T02:28:28;103.70;;;50.80;;
3597;SDS011;1813;52.016;8.714;2022-12-10T02:31:14;106.77;;;51.40;;
3597;SDS011;1813;52.016;8.714;2022-12-10T02:33:53;95.90;;;49.47;;
3597;SDS011;1813;52.016;8.714;2022-12-10T02:36:31;92.90;;;48.37;;
3597;SDS011;1813;52.016;8.714;2022-12-10T02:39:09;97.30;;;48.83;;
3597;SDS011;1813;52.016;8.714;2022-12-10T02:41:53;101.50;;;49.90;;
3597;SDS011;1813;52.016;8.714;2022-12-10T02:44:28;92.40;;;48.33;;
3597;SDS011;1813;52.016;8.714;2022-12-10T02:47:05;95.30;;;50.27;;
3597;SDS011;1813;52.016;8.714;2022-12-10T02:49:45;92.77;;;48.40;;
3597;SDS011;1813;52.016;8.714;2022-12-10T02:52:24;99.47;;;50.23;;
3597;SDS011;1813;52.016;8.714;2022-12-10T02:54:58;95.33;;;47.93;;
3597;SDS011;1813;52.016;8.714;2022-12-10T02:57:35;94.10;;;47.43;;
3597;SDS011;1813;52.016;8.714;2022-12-10T03:00:14;94.43;;;48.73;;
3597;SDS011;1813;52.016;8.714;2022-12-10T03:03:20;92.97;;;47.40;;
3597;SDS011;1813;52.016;8.714;2022-12-10T03:06:00;95.30;;;48.80;;
3597;SDS011;1813;52.016;8.714;2022-12-10T03:08:42;88.80;;;48.07;;
3597;SDS011;1813;52.016;8.714;2022-12-10T03:11:21;97.50;;;47.90;;
3597;SDS011;1813;52.016;8.714;2022-12-10T03:13:57;92.93;;;48.23;;
3597;SDS011;1813;52.016;8.714;2022-12-10T03:16:34;90.03;;;46.50;;
3597;SDS011;1813;52.016;8.714;2022-12-10T03:19:15;87.07;;;47.70;;
3597;SDS011;1813;52.016;8.714;2022-12-10T03:21:51;93.23;;;49.10;;
3597;SDS011;1813;52.016;8.714;2022-12-10T03:24:29;95.60;;;48.83;;
3597;SDS011;1813;52.016;8.714;2022-12-10T03:27:04;89.07;;;48.67;;
3597;SDS011;1813;52.016;8.714;2022-12-10T03:29:40;90.13;;;47.00;;
3597;SDS011;1813;52.016;8.714;2022-12-10T03:32:19;95.90;;;48.83;;
3597;SDS011;1813;52.016;8.714;2022-12-10T03:34:58;88.97;;;47.53;;
3597;SDS011;1813;52.016;8.714;2022-12-10T03:37:34;90.50;;;47.47;;
3597;SDS011;1813;52.016;8.714;2022-12-10T03:40:09;90.67;;;46.90;;
3597;SDS011;1813;52.016;8.714;2022-12-10T03:42:45;96.27;;;48.17;;
3597;SDS011;1813;52.016;8.714;2022-12-10T03:45:19;93.27;;;48.83;;
3597;SDS011;1813;52.016;8.714;2022-12-10T03:47:53;95.87;;;48.03;;
3597;SDS011;1813;52.016;8.714;2022-12-10T03:50:29;94.13;;;48.93;;
3597;SDS011;1813;52.016;8.714;2022-12-10T03:53:03;96.70;;;48.30;;
3597;SDS011;1813;52.016;8.714;2022-12-10T03:55:37;92.03;;;48.40;;
3597;SDS011;1813;52.016;8.714;2022-12-10T03:58:10;95.87;;;47.50;;
3597;SDS011;1813;52.016;8.714;2022-12-10T04:00:44;92.70;;;46.60;;
3597;SDS011;1813;52.016;8.714;2022-12-10T04:03:18;92.27;;;47.90;;
3597;SDS011;1813;52.016;8.714;2022-12-10T04:05:54;93.40;;;48.13;;
3597;SDS011;1813;52.016;8.714;2022-12-10T04:08:34;92.13;;;47.40;;
3597;SDS011;1813;52.016;8.714;2022-12-10T04:11:09;89.57;;;46.43;;
3597;SDS011;1813;52.016;8.714;2022-12-10T04:13:43;94.27;;;48.80;;
3597;SDS011;1813;52.016;8.714;2022-12-10T04:16:30;93.27;;;47.97;;
3597;SDS011;1813;52.016;8.714;2022-12-10T04:19:06;91.57;;;46.80;;
3597;SDS011;1813;52.016;8.714;2022-12-10T04:21:44;92.13;;;46.30;;
3597;SDS011;1813;52.016;8.714;2022-12-10T04:24:32;97.60;;;48.43;;
3597;SDS011;1813;52.016;8.714;2022-12-10T04:27:20;94.60;;;48.57;;
3597;SDS011;1813;52.016;8.714;2022-12-10T04:29:56;94.23;;;48.27;;
3597;SDS011;1813;52.016;8.714;2022-12-10T04:32:31;92.63;;;48.30;;
3597;SDS011;1813;52.016;8.714;2022-12-10T04:35:06;95.40;;;48.40;;
3597;SDS011;1813;52.016;8.714;2022-12-10T04:37:43;91.63;;;47.73;;
3597;SDS011;1813;52.016;8.714;2022-12-10T04:40:17;104.27;;;50.07;;
3597;SDS011;1813;52.016;8.714;2022-12-10T04:42:51;94.20;;;49.80;;
3597;SDS011;1813;52.016;8.714;2022-12-10T04:45:24;97.10;;;47.37;;
3597;SDS011;1813;52.016;8.714;2022-12-10T04:47:58;97.97;;;49.07;;
3597;SDS011;1813;52.016;8.714;2022-12-10T04:50:32;91.70;;;47.83;;
3597;SDS011;1813;52.016;8.714;2022-12-10T04:53:09;93.17;;;47.90;;
3597;SDS011;1813;52.016;8.714;2022-12-10T04:55:43;95.33;;;47.30;;
3597;SDS011;1813;52.016;8.714;2022-12-10T04:58:16;90.93;;;47.87;;
3597;SDS011;1813;52.016;8.714;2022-12-10T05:00:50;91.73;;;47.63;;
3597;SDS011;1813;52.016;8.714;2022-12-10T05:03:24;98.10;;;47.97;;
3597;SDS011;1813;52.016;8.714;2022-12-10T05:06:00;94.03;;;47.63;;
3597;SDS011;1813;52.016;8.714;2022-12-10T05:08:37;97.03;;;50.17;;
3597;SDS011;1813;52.016;8.714;2022-12-10T05:11:20;96.97;;;48.90;;
3597;SDS011;1813;52.016;8.714;2022-12-10T05:13:56;94.90;;;49.83;;
3597;SDS011;1813;52.016;8.714;2022-12-10T05:16:31;100.07;;;47.97;;
3597;SDS011;1813;52.016;8.714;2022-12-10T05:19:06;96.87;;;50.10;;
3597;SDS011;1813;52.016;8.714;2022-12-10T05:21:39;97.63;;;49.40;;
3597;SDS011;1813;52.016;8.714;2022-12-10T05:24:29;96.23;;;48.53;;
3597;SDS011;1813;52.016;8.714;2022-12-10T05:27:03;104.20;;;49.30;;
3597;SDS011;1813;52.016;8.714;2022-12-10T05:29:37;95.63;;;48.70;;
3597;SDS011;1813;52.016;8.714;2022-12-10T05:32:10;93.97;;;48.53;;
3597;SDS011;1813;52.016;8.714;2022-12-10T05:34:44;102.80;;;48.97;;
3597;SDS011;1813;52.016;8.714;2022-12-10T05:37:18;95.23;;;47.80;;
3597;SDS011;1813;52.016;8.714;2022-12-10T05:39:54;88.93;;;45.80;;
3597;SDS011;1813;52.016;8.714;2022-12-10T05:42:28;97.70;;;48.43;;
3597;SDS011;1813;52.016;8.714;2022-12-10T05:45:02;94.27;;;49.57;;
3597;SDS011;1813;52.016;8.714;2022-12-10T05:47:36;91.17;;;48.27;;
3597;SDS011;1813;52.016;8.714;2022-12-10T05:50:09;100.73;;;49.67;;
3597;SDS011;1813;52.016;8.714;2022-12-10T05:52:43;98.73;;;49.53;;
3597;SDS011;1813;52.016;8.714;2022-12-10T05:55:20;96.10;;;48.17;;
3597;SDS011;1813;52.016;8.714;2022-12-10T05:57:53;95.00;;;48.60;;
3597;SDS011;1813;52.016;8.714;2022-12-10T06:00:27;93.17;;;48.13;;
3597;SDS011;1813;52.016;8.714;2022-12-10T06:03:01;91.90;;;47.33;;
3597;SDS011;1813;52.016;8.714;2022-12-10T06:05:36;93.40;;;47.83;;
3597;SDS011;1813;52.016;8.714;2022-12-10T06:08:10;93.97;;;48.30;;
3597;SDS011;1813;52.016;8.714;2022-12-10T06:10:46;91.70;;;47.10;;
3597;SDS011;1813;52.016;8.714;2022-12-10T06:13:20;97.07;;;48.50;;
3597;SDS011;1813;52.016;8.714;2022-12-10T06:15:53;87.03;;;45.23;;
3597;SDS011;1813;52.016;8.714;2022-12-10T06:18:27;97.77;;;47.77;;
3597;SDS011;1813;52.016;8.714;2022-12-10T06:21:02;100.67;;;49.60;;
3597;SDS011;1813;52.016;8.714;2022-12-10T06:23:36;94.53;;;47.10;;
3597;SDS011;1813;52.016;8.714;2022-12-10T06:26:14;95.17;;;46.40;;
3597;SDS011;1813;52.016;8.714;2022-12-10T06:28:49;96.03;;;49.10;;
3597;SDS011;1813;52.016;8.714;2022-12-10T06:31:23;104.40;;;51.40;;
3597;SDS011;1813;52.016;8.714;2022-12-10T06:33:57;102.00;;;50.43;;
3597;SDS011;1813;52.016;8.714;2022-12-10T06:36:31;92.60;;;47.43;;
3597;SDS011;1813;52.016;8.714;2022-12-10T06:39:05;100.20;;;49.27;;
3597;SDS011;1813;52.016;8.714;2022-12-10T06:41:41;96.87;;;48.87;;
3597;SDS011;1813;52.016;8.714;2022-12-10T06:44:16;97.57;;;49.57;;
3597;SDS011;1813;52.016;8.714;2022-12-10T06:46:50;100.33;;;49.40;;
3597;SDS011;1813;52.016;8.714;2022-12-10T06:49:23;103.30;;;50.03;;
3597;SDS011;1813;52.016;8.714;2022-12-10T06:51:57;108.67;;;49.47;;
3597;SDS011;1813;52.016;8.714;2022-12-10T06:54:31;102.80;;;50.13;;
3597;SDS011;1813;52.016;8.714;2022-12-10T06:57:07;104.73;;;50.87;;
3597;SDS011;1813;52.016;8.714;2022-12-10T06:59:41;101.63;;;50.17;;
3597;SDS011;1813;52.016;8.714;2022-12-10T07:02:15;107.73;;;51.63;;
3597;SDS011;1813;52.016;8.714;2022-12-10T07:04:49;101.70;;;51.40;;
3597;SDS011;1813;52.016;8.714;2022-12-10T07:07:26;101.23;;;50.67;;
3597;SDS011;1813;52.016;8.714;2022-12-10T07:10:00;112.20;;;53.23;;
3597;SDS011;1813;52.016;8.714;2022-12-10T07:12:36;103.00;;;50.93;;
3597;SDS011;1813;52.016;8.714;2022-12-10T07:15:10;102.77;;;51.20;;
3597;SDS011;1813;52.016;8.714;2022-12-10T07:17:44;99.50;;;50.53;;
3597;SDS011;1813;52.016;8.714;2022-12-10T07:20:18;96.50;;;49.87;;
3597;SDS011;1813;52.016;8.714;2022-12-10T07:22:51;99.60;;;50.27;;
3597;SDS011;1813;52.016;8.714;2022-12-10T07:25:25;102.70;;;52.60;;
3597;SDS011;1813;52.016;8.714;2022-12-10T07:28:03;94.50;;;49.83;;
3597;SDS011;1813;52.016;8.714;2022-12-10T07:30:36;102.57;;;50.00;;
3597;SDS011;1813;52.016;8.714;2022-12-10T07:33:10;100.33;;;50.60;;
3597;SDS011;1813;52.016;8.714;2022-12-10T07:35:44;101.27;;;51.77;;
3597;SDS011;1813;52.016;8.714;2022-12-10T07:38:18;101.93;;;51.27;;
3597;SDS011;1813;52.016;8.714;2022-12-10T07:40:51;103.70;;;51.17;;
3597;SDS011;1813;52.016;8.714;2022-12-10T07:43:28;103.80;;;52.00;;
3597;SDS011;1813;52.016;8.714;2022-12-10T07:46:05;103.53;;;51.80;;
3597;SDS011;1813;52.016;8.714;2022-12-10T07:48:40;100.60;;;50.07;;
3597;SDS011;1813;52.016;8.714;2022-12-10T07:51:15;100.93;;;51.40;;
3597;SDS011;1813;52.016;8.714;2022-12-10T07:53:51;107.70;;;52.80;;
3597;SDS011;1813;52.016;8.714;2022-12-10T07:56:26;104.37;;;51.90;;
3597;SDS011;1813;52.016;8.714;2022-12-10T07:59:02;105.47;;;51.23;;
3597;SDS011;1813;52.016;8.714;2022-12-10T08:01:36;103.97;;;51.33;;
3597;SDS011;1813;52.016;8.714;2022-12-10T08:04:10;102.07;;;51.20;;
3597;SDS011;1813;52.016;8.714;2022-12-10T08:06:43;99.33;;;49.50;;
3597;SDS011;1813;52.016;8.714;2022-12-10T08:09:18;102.97;;;50.00;;
3597;SDS011;1813;52.016;8.714;2022-12-10T08:11:52;99.57;;;50.60;;
3597;SDS011;1813;52.016;8.714;2022-12-10T08:14:29;103.30;;;49.03;;
3597;SDS011;1813;52.016;8.714;2022-12-10T08:17:03;103.73;;;50.43;;
3597;SDS011;1813;52.016;8.714;2022-12-10T08:19:36;99.23;;;50.93;;
3597;SDS011;1813;52.016;8.714;2022-12-10T08:22:11;105.07;;;50.60;;
3597;SDS011;1813;52.016;8.714;2022-12-10T08:24:45;100.30;;;50.87;;
3597;SDS011;1813;52.016;8.714;2022-12-10T08:27:18;100.20;;;49.37;;
3597;SDS011;1813;52.016;8.714;2022-12-10T08:29:55;104.70;;;50.30;;
3597;SDS011;1813;52.016;8.714;2022-12-10T08:32:28;97.90;;;49.17;;
3597;SDS011;1813;52.016;8.714;2022-12-10T08:35:03;91.47;;;48.83;;
3597;SDS011;1813;52.016;8.714;2022-12-10T08:37:40;94.13;;;48.20;;
3597;SDS011;1813;52.016;8.714;2022-12-10T08:40:14;95.07;;;50.10;;
3597;SDS011;1813;52.016;8.714;2022-12-10T08:42:48;94.83;;;48.90;;
3597;SDS011;1813;52.016;8.714;2022-12-10T08:45:24;92.70;;;48.60;;
3597;SDS011;1813;52.016;8.714;2022-12-10T08:47:58;94.57;;;48.90;;
3597;SDS011;1813;52.016;8.714;2022-12-10T08:50:32;92.37;;;47.67;;
3597;SDS011;1813;52.016;8.714;2022-12-10T08:53:06;90.27;;;47.97;;
3597;SDS011;1813;52.016;8.714;2022-12-10T08:55:40;97.93;;;49.67;;
3597;SDS011;1813;52.016;8.714;2022-12-10T08:58:13;93.50;;;48.27;;
3597;SDS011;1813;52.016;8.714;2022-12-10T09:00:50;90.17;;;47.77;;
3597;SDS011;1813;52.016;8.714;2022-12-10T09:03:24;88.20;;;46.70;;
3597;SDS011;1813;52.016;8.714;2022-12-10T09:06:01;93.90;;;48.70;;
3597;SDS011;1813;52.016;8.714;2022-12-10T09:08:35;93.50;;;48.70;;
3597;SDS011;1813;52.016;8.714;2022-12-10T09:11:10;90.53;;;47.20;;
3597;SDS011;1813;52.016;8.714;2022-12-10T09:13:45;89.90;;;47.20;;
3597;SDS011;1813;52.016;8.714;2022-12-10T09:16:24;89.00;;;47.40;;
3597;SDS011;1813;52.016;8.714;2022-12-10T09:19:01;87.40;;;46.60;;
3597;SDS011;1813;52.016;8.714;2022-12-10T09:21:37;83.07;;;45.23;;
3597;SDS011;1813;52.016;8.714;2022-12-10T09:24:10;95.37;;;45.97;;
3597;SDS011;1813;52.016;8.714;2022-12-10T09:26:44;82.00;;;44.93;;
3597;SDS011;1813;52.016;8.714;2022-12-10T09:29:18;87.10;;;45.37;;
3597;SDS011;1813;52.016;8.714;2022-12-10T09:31:55;85.80;;;44.10;;
3597;SDS011;1813;52.016;8.714;2022-12-10T09:34:29;87.63;;;45.70;;
3597;SDS011;1813;52.016;8.714;2022-12-10T09:37:02;84.63;;;45.37;;
3597;SDS011;1813;52.016;8.714;2022-12-10T09:39:36;86.67;;;45.90;;
3597;SDS011;1813;52.016;8.714;2022-12-10T09:42:17;84.13;;;45.97;;
3597;SDS011;1813;52.016;8.714;2022-12-10T09:45:05;81.93;;;44.47;;
3597;SDS011;1813;52.016;8.714;2022-12-10T09:47:53;84.30;;;47.17;;
3597;SDS011;1813;52.016;8.714;2022-12-10T09:50:35;88.90;;;47.70;;
3597;SDS011;1813;52.016;8.714;2022-12-10T09:53:21;87.53;;;47.30;;
3597;SDS011;1813;52.016;8.714;2022-12-10T09:55:57;84.17;;;44.10;;
3597;SDS011;1813;52.016;8.714;2022-12-10T09:58:32;80.17;;;44.30;;
3597;SDS011;1813;52.016;8.714;2022-12-10T10:01:09;85.07;;;44.97;;
3597;SDS011;1813;52.016;8.714;2022-12-10T10:03:50;82.97;;;44.40;;
3597;SDS011;1813;52.016;8.714;2022-12-10T10:06:24;80.90;;;44.40;;
3597;SDS011;1813;52.016;8.714;2022-12-10T10:09:01;85.70;;;44.10;;
3597;SDS011;1813;52.016;8.714;2022-12-10T10:11:37;79.00;;;43.93;;
3597;SDS011;1813;52.016;8.714;2022-12-10T10:14:12;85.63;;;45.80;;
3597;SDS011;1813;52.016;8.714;2022-12-10T10:16:48;77.87;;;43.03;;
3597;SDS011;1813;52.016;8.714;2022-12-10T10:19:30;71.83;;;39.50;;
3597;SDS011;1813;52.016;8.714;2022-12-10T10:22:08;63.77;;;36.57;;
3597;SDS011;1813;52.016;8.714;2022-12-10T10:24:44;65.53;;;38.40;;
3597;SDS011;1813;52.016;8.714;2022-12-10T10:27:19;68.13;;;37.93;;
3597;SDS011;1813;52.016;8.714;2022-12-10T10:30:04;67.00;;;38.40;;
3597;SDS011;1813;52.016;8.714;2022-12-10T10:32:47;72.23;;;41.30;;
3597;SDS011;1813;52.016;8.714;2022-12-10T10:35:27;62.13;;;37.13;;
3597;SDS011;1813;52.016;8.714;2022-12-10T10:38:05;68.73;;;39.13;;
3597;SDS011;1813;52.016;8.714;2022-12-10T10:40:41;60.17;;;36.10;;
3597;SDS011;1813;52.016;8.714;2022-12-10T10:43:18;56.80;;;34.90;;
3597;SDS011;1813;52.016;8.714;2022-12-10T10:45:56;57.97;;;34.80;;
3597;SDS011;1813;52.016;8.714;2022-12-10T10:48:35;56.60;;;34.43;;
3597;SDS011;1813;52.016;8.714;2022-12-10T10:51:17;57.73;;;35.33;;
3597;SDS011;1813;52.016;8.714;2022-12-10T10:53:54;59.10;;;35.80;;
3597;SDS011;1813;52.016;8.714;2022-12-10T10:56:31;58.70;;;35.03;;
3597;SDS011;1813;52.016;8.714;2022-12-10T10:59:21;54.47;;;33.40;;
3597;SDS011;1813;52.016;8.714;2022-12-10T11:02:04;52.40;;;31.73;;
3597;SDS011;1813;52.016;8.714;2022-12-10T11:04:49;52.63;;;31.50;;
3597;SDS011;1813;52.016;8.714;2022-12-10T11:07:32;53.60;;;31.60;;
3597;SDS011;1813;52.016;8.714;2022-12-10T11:10:15;56.00;;;31.43;;
3597;SDS011;1813;52.016;8.714;2022-12-10T11:12:53;47.70;;;30.07;;
3597;SDS011;1813;52.016;8.714;2022-12-10T11:15:32;54.10;;;32.90;;
3597;SDS011;1813;52.016;8.714;2022-12-10T11:18:22;56.43;;;33.03;;
3597;SDS011;1813;52.016;8.714;2022-12-10T11:20:59;55.17;;;33.03;;
3597;SDS011;1813;52.016;8.714;2022-12-10T11:23:39;49.27;;;30.30;;
3597;SDS011;1813;52.016;8.714;2022-12-10T11:26:29;51.50;;;30.80;;
3597;SDS011;1813;52.016;8.714;2022-12-10T11:29:24;50.17;;;30.90;;
3597;SDS011;1813;52.016;8.714;2022-12-10T11:32:11;48.90;;;29.20;;
3597;SDS011;1813;52.016;8.714;2022-12-10T11:34:57;48.53;;;29.90;;
3597;SDS011;1813;52.016;8.714;2022-12-10T11:37:43;52.93;;;31.63;;
3597;SDS011;1813;52.016;8.714;2022-12-10T11:40:31;49.40;;;30.87;;
3597;SDS011;1813;52.016;8.714;2022-12-10T11:43:14;50.70;;;31.67;;
3597;SDS011;1813;52.016;8.714;2022-12-10T11:46:10;47.37;;;29.17;;
3597;SDS011;1813;52.016;8.714;2022-12-10T11:48:55;48.87;;;29.50;;
3597;SDS011;1813;52.016;8.714;2022-12-10T11:51:39;42.93;;;27.33;;
3597;SDS011;1813;52.016;8.714;2022-12-10T11:54:21;44.67;;;27.40;;
3597;SDS011;1813;52.016;8.714;2022-12-10T11:57:16;44.40;;;27.37;;
3597;SDS011;1813;52.016;8.714;2022-12-10T11:59:57;46.70;;;27.83;;
3597;SDS011;1813;52.016;8.714;2022-12-10T12:02:44;48.40;;;28.00;;
3597;SDS011;1813;52.016;8.714;2022-12-10T12:05:34;39.70;;;26.00;;
3597;SDS011;1813;52.016;8.714;2022-12-10T12:08:21;41.03;;;26.73;;
3597;SDS011;1813;52.016;8.714;2022-12-10T12:11:10;42.60;;;26.90;;
3597;SDS011;1813;52.016;8.714;2022-12-10T12:13:59;37.37;;;24.80;;
3597;SDS011;1813;52.016;8.714;2022-12-10T12:16:40;39.60;;;24.57;;
3597;SDS011;1813;52.016;8.714;2022-12-10T12:19:19;38.97;;;25.27;;
3597;SDS011;1813;52.016;8.714;2022-12-10T12:21:58;41.43;;;26.03;;
3597;SDS011;1813;52.016;8.714;2022-12-10T12:24:38;41.43;;;25.87;;
3597;SDS011;1813;52.016;8.714;2022-12-10T12:27:19;43.30;;;26.70;;
3597;SDS011;1813;52.016;8.714;2022-12-10T12:30:05;41.00;;;26.67;;
3597;SDS011;1813;52.016;8.714;2022-12-10T12:32:48;39.20;;;25.20;;
3597;SDS011;1813;52.016;8.714;2022-12-10T12:35:28;42.43;;;24.47;;
3597;SDS011;1813;52.016;8.714;2022-12-10T12:38:17;36.80;;;23.70;;
3597;SDS011;1813;52.016;8.714;2022-12-10T12:40:57;42.17;;;23.70;;
3597;SDS011;1813;52.016;8.714;2022-12-10T12:43:39;37.10;;;23.70;;
3597;SDS011;1813;52.016;8.714;2022-12-10T12:46:25;36.53;;;23.57;;
3597;SDS011;1813;52.016;8.714;2022-12-10T12:49:05;37.63;;;24.70;;
3597;SDS011;1813;52.016;8.714;2022-12-10T12:51:48;41.83;;;25.00;;
3597;SDS011;1813;52.016;8.714;2022-12-10T12:54:25;38.83;;;25.30;;
3597;SDS011;1813;52.016;8.714;2022-12-10T12:57:02;41.50;;;26.30;;
3597;SDS011;1813;52.016;8.714;2022-12-10T12:59:52;41.57;;;26.30;;
3597;SDS011;1813;52.016;8.714;2022-12-10T13:05:43;40.77;;;26.53;;
3597;SDS011;1813;52.016;8.714;2022-12-10T13:08:30;38.67;;;25.73;;
3597;SDS011;1813;52.016;8.714;2022-12-10T13:11:16;39.80;;;25.10;;
3597;SDS011;1813;52.016;8.714;2022-12-10T13:14:04;38.87;;;25.57;;
3597;SDS011;1813;52.016;8.714;2022-12-10T13:16:49;37.90;;;23.50;;
3597;SDS011;1813;52.016;8.714;2022-12-10T13:19:36;35.20;;;22.90;;
3597;SDS011;1813;52.016;8.714;2022-12-10T13:22:10;37.93;;;23.80;;
3597;SDS011;1813;52.016;8.714;2022-12-10T13:25:09;36.87;;;24.40;;
3597;SDS011;1813;52.016;8.714;2022-12-10T13:27:54;36.93;;;23.50;;
3597;SDS011;1813;52.016;8.714;2022-12-10T13:30:33;38.77;;;24.67;;
3597;SDS011;1813;52.016;8.714;2022-12-10T13:33:16;41.60;;;25.20;;
3597;SDS011;1813;52.016;8.714;2022-12-10T13:35:58;36.60;;;24.93;;
3597;SDS011;1813;52.016;8.714;2022-12-10T13:38:38;35.43;;;23.83;;
3597;SDS011;1813;52.016;8.714;2022-12-10T13:41:14;37.17;;;24.37;;
3597;SDS011;1813;52.016;8.714;2022-12-10T13:44:00;34.80;;;23.70;;
3597;SDS011;1813;52.016;8.714;2022-12-10T13:46:51;36.93;;;23.57;;
3597;SDS011;1813;52.016;8.714;2022-12-10T13:49:27;35.90;;;23.60;;
3597;SDS011;1813;52.016;8.714;2022-12-10T13:52:05;35.70;;;22.63;;
3597;SDS011;1813;52.016;8.714;2022-12-10T13:54:58;62.53;;;32.70;;
3597;SDS011;1813;52.016;8.714;2022-12-10T13:57:50;34.83;;;23.07;;
3597;SDS011;1813;52.016;8.714;2022-12-10T14:00:41;38.27;;;24.73;;
3597;SDS011;1813;52.016;8.714;2022-12-10T14:03:39;36.30;;;23.93;;
3597;SDS011;1813;52.016;8.714;2022-12-10T14:06:34;35.23;;;23.70;;
3597;SDS011;1813;52.016;8.714;2022-12-10T14:09:15;37.03;;;25.30;;
3597;SDS011;1813;52.016;8.714;2022-12-10T14:11:53;36.83;;;23.93;;
3597;SDS011;1813;52.016;8.714;2022-12-10T14:14:31;35.40;;;23.60;;
3597;SDS011;1813;52.016;8.714;2022-12-10T14:17:10;37.23;;;23.10;;
3597;SDS011;1813;52.016;8.714;2022-12-10T14:19:46;35.60;;;22.50;;
3597;SDS011;1813;52.016;8.714;2022-12-10T14:22:23;34.80;;;22.80;;
3597;SDS011;1813;52.016;8.714;2022-12-10T14:25:09;38.33;;;24.00;;
3597;SDS011;1813;52.016;8.714;2022-12-10T14:27:46;35.20;;;23.90;;
3597;SDS011;1813;52.016;8.714;2022-12-10T14:30:22;34.40;;;23.17;;
3597;SDS011;1813;52.016;8.714;2022-12-10T14:32:58;34.40;;;22.70;;
3597;SDS011;1813;52.016;8.714;2022-12-10T14:35:32;35.93;;;23.40;;
3597;SDS011;1813;52.016;8.714;2022-12-10T14:38:12;35.20;;;23.70;;
3597;SDS011;1813;52.016;8.714;2022-12-10T14:40:53;38.27;;;24.90;;
3597;SDS011;1813;52.016;8.714;2022-12-10T14:43:29;37.07;;;24.87;;
3597;SDS011;1813;52.016;8.714;2022-12-10T14:46:12;35.50;;;23.87;;
3597;SDS011;1813;52.016;8.714;2022-12-10T14:48:51;36.30;;;24.33;;
3597;SDS011;1813;52.016;8.714;2022-12-10T14:51:26;41.07;;;23.63;;
3597;SDS011;1813;52.016;8.714;2022-12-10T14:54:12;36.97;;;24.37;;
3597;SDS011;1813;52.016;8.714;2022-12-10T14:57:01;38.03;;;24.70;;
3597;SDS011;1813;52.016;8.714;2022-12-10T14:59:40;38.47;;;24.70;;
3597;SDS011;1813;52.016;8.714;2022-12-10T15:02:20;36.40;;;24.60;;
3597;SDS011;1813;52.016;8.714;2022-12-10T15:05:00;44.80;;;25.27;;
3597;SDS011;1813;52.016;8.714;2022-12-10T15:07:34;41.27;;;25.97;;
3597;SDS011;1813;52.016;8.714;2022-12-10T15:10:12;39.50;;;25.93;;
3597;SDS011;1813;52.016;8.714;2022-12-10T15:12:53;40.30;;;25.60;;
3597;SDS011;1813;52.016;8.714;2022-12-10T15:15:29;38.23;;;25.40;;
3597;SDS011;1813;52.016;8.714;2022-12-10T15:18:09;39.27;;;25.37;;
3597;SDS011;1813;52.016;8.714;2022-12-10T15:20:47;38.70;;;25.80;;
3597;SDS011;1813;52.016;8.714;2022-12-10T15:23:25;42.47;;;27.00;;
3597;SDS011;1813;52.016;8.714;2022-12-10T15:26:09;44.40;;;27.20;;
3597;SDS011;1813;52.016;8.714;2022-12-10T15:28:52;39.50;;;26.20;;
3597;SDS011;1813;52.016;8.714;2022-12-10T15:31:46;42.50;;;27.27;;
3597;SDS011;1813;52.016;8.714;2022-12-10T15:34:20;46.07;;;28.10;;
3597;SDS011;1813;52.016;8.714;2022-12-10T15:36:54;40.13;;;27.13;;
3597;SDS011;1813;52.016;8.714;2022-12-10T15:39:33;41.40;;;27.53;;
3597;SDS011;1813;52.016;8.714;2022-12-10T15:42:30;41.17;;;27.23;;
3597;SDS011;1813;52.016;8.714;2022-12-10T15:45:24;40.30;;;27.00;;
3597;SDS011;1813;52.016;8.714;2022-12-10T15:47:59;42.03;;;26.50;;
3597;SDS011;1813;52.016;8.714;2022-12-10T15:50:36;42.63;;;27.30;;